Time;durP1;ratioP1;P1;durP2;ratioP2;P2;SDS_P1;SDS_P2;PMS_P1;PMS_P2;Temp;Humidity;BMP_temperature;BMP_pressure;BME280_temperature;BME280_humidity;BME280_pressure;Samples;Min_cycle;Max_cycle;Signal;HPM_P1;HPM_P2
2022/09/30 00:00:25;;;;;;;3.50;2.10;;;7.10;99.90;;;;;;4992687;28;20279;-73
2022/09/30 00:02:51;;;;;;;2.10;1.70;;;7.10;99.90;;;;;;4993014;28;20408;-72
2022/09/30 00:05:16;;;;;;;2.23;2.03;;;7.10;99.90;;;;;;4992375;28;20254;-72
2022/09/30 00:07:42;;;;;;;3.53;1.90;;;7.10;99.90;;;;;;4992564;28;20531;-71
2022/09/30 00:10:08;;;;;;;6.10;3.10;;;7.10;99.90;;;;;;4992378;28;20183;-72
2022/09/30 00:12:34;;;;;;;3.73;1.67;;;7.00;99.90;;;;;;4991406;28;20593;-72
2022/09/30 00:14:59;;;;;;;4.13;2.77;;;7.10;99.90;;;;;;4992133;28;20412;-72
2022/09/30 00:17:25;;;;;;;5.57;2.80;;;7.10;99.90;;;;;;4992552;28;20197;-72
2022/09/30 00:19:50;;;;;;;2.57;2.37;;;7.10;99.90;;;;;;4996028;28;20549;-72
2022/09/30 00:22:16;;;;;;;3.90;2.60;;;7.10;99.90;;;;;;4996602;28;20580;-71
2022/09/30 00:24:41;;;;;;;6.67;2.53;;;7.10;99.90;;;;;;4996178;28;20173;-72
2022/09/30 00:27:07;;;;;;;2.90;2.50;;;7.10;99.90;;;;;;4996239;28;20270;-72
2022/09/30 00:29:32;;;;;;;6.50;3.63;;;7.00;99.90;;;;;;4996235;28;20204;-72
2022/09/30 00:31:58;;;;;;;3.17;2.80;;;7.00;99.90;;;;;;4996259;28;20180;-72
2022/09/30 00:34:23;;;;;;;3.63;2.83;;;7.00;99.90;;;;;;4995991;28;20169;-72
2022/09/30 00:36:52;;;;;;;8.63;2.33;;;7.00;99.90;;;;;;4996010;28;20249;-71
2022/09/30 00:39:21;;;;;;;8.13;3.50;;;7.00;99.90;;;;;;4996091;28;20173;-71
2022/09/30 00:41:50;;;;;;;5.33;3.00;;;7.00;99.90;;;;;;4996033;28;20408;-72
2022/09/30 00:44:49;;;;;;;4.93;2.80;;;7.00;99.90;;;;;;4995977;28;20990;-73
2022/09/30 00:47:36;;;;;;;5.43;2.60;;;7.00;99.90;;;;;;4995747;28;20456;-73
2022/09/30 00:50:08;;;;;;;3.47;2.50;;;7.00;99.90;;;;;;4994528;28;20826;-73
2022/09/30 00:52:34;;;;;;;3.07;2.40;;;6.90;99.90;;;;;;4995525;28;20406;-73
2022/09/30 00:55:03;;;;;;;3.20;2.90;;;6.90;99.90;;;;;;4995628;28;20404;-71
2022/09/30 00:57:29;;;;;;;5.30;2.67;;;6.90;99.90;;;;;;4997563;28;20192;-72
2022/09/30 00:59:55;;;;;;;8.57;2.40;;;6.80;99.90;;;;;;4996536;28;20404;-73
2022/09/30 01:02:21;;;;;;;4.60;3.07;;;6.80;99.90;;;;;;4994388;28;20910;-72
2022/09/30 01:04:47;;;;;;;4.10;3.50;;;6.80;99.90;;;;;;4995381;28;20175;-72
2022/09/30 01:07:13;;;;;;;4.00;3.37;;;6.80;99.90;;;;;;4994199;28;20217;-71
2022/09/30 01:09:41;;;;;;;5.07;2.87;;;6.70;99.90;;;;;;4995586;28;20440;-72
2022/09/30 01:12:11;;;;;;;6.43;3.10;;;6.70;99.90;;;;;;4995485;28;20491;-73
2022/09/30 01:14:38;;;;;;;10.33;3.60;;;6.70;99.90;;;;;;4995098;28;20419;-72
2022/09/30 01:17:12;;;;;;;6.03;3.70;;;6.70;99.90;;;;;;4995249;28;20469;-72
2022/09/30 01:19:41;;;;;;;5.87;3.67;;;6.70;99.90;;;;;;4995394;28;20404;-73
2022/09/30 01:22:12;;;;;;;6.73;3.43;;;6.70;99.90;;;;;;4995298;28;20408;-74
2022/09/30 01:25:08;;;;;;;4.27;3.50;;;6.70;99.90;;;;;;4994951;28;20404;-73
2022/09/30 01:27:49;;;;;;;4.63;3.40;;;6.60;99.90;;;;;;4993899;28;20451;-72
2022/09/30 01:30:20;;;;;;;6.17;3.00;;;6.60;99.90;;;;;;4993123;28;20412;-73
2022/09/30 01:33:02;;;;;;;6.90;3.63;;;6.50;99.90;;;;;;4995001;28;20407;-73
2022/09/30 01:35:59;;;;;;;7.37;3.40;;;6.50;99.90;;;;;;4994632;28;20407;-73
2022/09/30 01:38:44;;;;;;;4.53;2.93;;;6.40;99.90;;;;;;4994844;28;20400;-73
2022/09/30 01:41:20;;;;;;;4.17;3.00;;;6.40;99.90;;;;;;4994970;28;20410;-73
2022/09/30 01:44:15;;;;;;;6.00;3.70;;;6.40;99.90;;;;;;4993630;28;21009;-73
2022/09/30 01:46:56;;;;;;;3.90;3.23;;;6.30;99.90;;;;;;4993316;28;20464;-73
2022/09/30 01:50:06;;;;;;;12.90;4.00;;;6.30;99.90;;;;;;4993468;28;20431;-74
2022/09/30 01:52:54;;;;;;;6.13;3.70;;;6.40;99.90;;;;;;4992134;28;20420;-74
2022/09/30 01:55:31;;;;;;;6.60;4.37;;;6.50;99.90;;;;;;4994324;28;20411;-73
2022/09/30 01:58:03;;;;;;;4.40;3.90;;;6.40;99.90;;;;;;4994591;28;20392;-73
2022/09/30 02:00:31;;;;;;;7.07;3.93;;;6.40;99.90;;;;;;4994575;28;20396;-72
2022/09/30 02:03:08;;;;;;;7.17;4.20;;;6.50;99.90;;;;;;4993073;28;20755;-73
2022/09/30 02:05:40;;;;;;;6.87;3.90;;;6.40;99.90;;;;;;4993794;28;20513;-73
2022/09/30 02:08:30;;;;;;;4.93;4.40;;;6.40;99.90;;;;;;4994425;28;20405;-73
2022/09/30 02:11:23;;;;;;;5.57;4.57;;;6.40;99.90;;;;;;4993162;28;20408;-74
2022/09/30 02:13:56;;;;;;;6.17;4.40;;;6.30;99.90;;;;;;4994126;28;20400;-72
2022/09/30 02:16:31;;;;;;;5.10;4.60;;;6.30;99.90;;;;;;4993919;28;20420;-73
2022/09/30 02:19:03;;;;;;;7.33;3.73;;;6.20;99.90;;;;;;4994221;28;20924;-73
2022/09/30 02:21:38;;;;;;;6.00;3.87;;;6.20;99.90;;;;;;4994182;28;20400;-73
2022/09/30 02:24:09;;;;;;;6.40;4.37;;;6.20;99.90;;;;;;4994122;28;20526;-74
2022/09/30 02:26:41;;;;;;;7.90;4.50;;;6.20;99.90;;;;;;4993596;28;21042;-72
2022/09/30 02:29:14;;;;;;;5.70;3.63;;;6.10;99.90;;;;;;4994067;28;20897;-71
2022/09/30 02:31:43;;;;;;;6.90;4.17;;;6.10;99.90;;;;;;4994085;28;20388;-72
2022/09/30 02:34:13;;;;;;;4.50;3.93;;;6.10;99.90;;;;;;4993884;28;20392;-73
2022/09/30 02:36:44;;;;;;;6.73;4.60;;;6.20;99.90;;;;;;4993795;28;20451;-72
2022/09/30 02:39:25;;;;;;;4.63;3.47;;;6.20;99.90;;;;;;4993536;28;20416;-71
2022/09/30 02:41:57;;;;;;;4.57;3.60;;;6.20;99.90;;;;;;4993102;28;20535;-72
2022/09/30 02:44:23;;;;;;;4.10;3.70;;;6.20;99.90;;;;;;4993611;28;20412;-72
2022/09/30 02:47:03;;;;;;;6.37;4.03;;;6.10;99.90;;;;;;4993673;28;20456;-72
2022/09/30 02:49:44;;;;;;;5.90;3.93;;;6.20;99.90;;;;;;4993263;28;20427;-72
2022/09/30 02:52:27;;;;;;;5.97;4.77;;;6.20;99.90;;;;;;4993748;28;20482;-72
2022/09/30 02:55:16;;;;;;;4.93;3.80;;;6.20;99.90;;;;;;4993211;28;20400;-71
2022/09/30 02:58:06;;;;;;;4.80;3.90;;;6.20;99.90;;;;;;4993473;28;20801;-72
2022/09/30 03:00:32;;;;;;;4.57;3.63;;;6.10;99.90;;;;;;4993540;28;20928;-72
2022/09/30 03:03:25;;;;;;;7.03;4.90;;;6.10;99.90;;;;;;4993430;28;20407;-73
2022/09/30 03:05:50;;;;;;;6.33;4.37;;;6.10;99.90;;;;;;4992907;28;20925;-72
2022/09/30 03:08:16;;;;;;;5.63;3.67;;;6.20;99.90;;;;;;4993264;28;20499;-71
2022/09/30 03:10:43;;;;;;;6.03;4.40;;;6.10;99.90;;;;;;4993217;28;20179;-72
2022/09/30 03:13:18;;;;;;;8.73;4.93;;;6.10;99.90;;;;;;4991987;28;20202;-71
2022/09/30 03:15:59;;;;;;;5.70;4.27;;;6.10;99.90;;;;;;4992695;28;20514;-71
2022/09/30 03:18:44;;;;;;;4.83;3.67;;;6.10;99.90;;;;;;4993315;28;20396;-71
2022/09/30 03:21:19;;;;;;;6.23;4.27;;;6.10;99.90;;;;;;4993240;28;20440;-72
2022/09/30 03:24:05;;;;;;;5.10;3.93;;;6.20;99.90;;;;;;4993145;28;20412;-73
2022/09/30 03:26:59;;;;;;;6.60;4.07;;;6.20;99.90;;;;;;4992755;28;21023;-72
2022/09/30 03:29:30;;;;;;;4.57;3.50;;;6.10;99.90;;;;;;4982868;28;20430;-71
2022/09/30 03:32:14;;;;;;;4.73;3.47;;;6.00;99.90;;;;;;4992685;28;20414;-71
2022/09/30 03:35:15;;;;;;;4.40;3.83;;;6.00;99.90;;;;;;4992669;28;20942;-71
2022/09/30 03:37:45;;;;;;;5.87;3.90;;;5.90;99.90;;;;;;4971058;28;20901;-71
2022/09/30 03:40:40;;;;;;;4.40;3.70;;;5.90;99.90;;;;;;4988932;28;20905;-72
2022/09/30 03:43:18;;;;;;;5.80;4.40;;;5.90;99.90;;;;;;4992822;28;20507;-72
2022/09/30 03:46:00;;;;;;;4.17;3.77;;;5.90;99.90;;;;;;4992253;28;20472;-73
2022/09/30 03:48:27;;;;;;;4.27;3.87;;;5.90;99.90;;;;;;4992894;28;20499;-72
2022/09/30 03:50:53;;;;;;;7.03;4.60;;;5.90;99.90;;;;;;4992591;28;20431;-73
2022/09/30 03:53:19;;;;;;;5.60;4.40;;;5.90;99.90;;;;;;4992378;28;20412;-71
2022/09/30 03:55:47;;;;;;;7.07;3.83;;;5.80;99.90;;;;;;4992205;28;20466;-72
2022/09/30 03:58:14;;;;;;;6.27;3.30;;;5.80;99.90;;;;;;4992716;28;20413;-72
2022/09/30 04:00:47;;;;;;;6.47;3.63;;;5.80;99.90;;;;;;4992724;28;20769;-73
2022/09/30 04:03:12;;;;;;;5.27;3.93;;;5.80;99.90;;;;;;4991461;28;20424;-71
2022/09/30 04:05:38;;;;;;;4.50;3.30;;;5.70;99.90;;;;;;4992072;28;20455;-73
2022/09/30 04:08:03;;;;;;;6.73;4.27;;;5.70;99.90;;;;;;4992618;28;20192;-72
2022/09/30 04:10:29;;;;;;;3.97;2.60;;;5.70;99.90;;;;;;4992816;28;20513;-72
2022/09/30 04:12:55;;;;;;;5.07;3.37;;;5.60;99.90;;;;;;4991456;28;20231;-73
2022/09/30 04:15:21;;;;;;;4.67;3.67;;;5.60;99.90;;;;;;4992225;28;20165;-72
2022/09/30 04:17:46;;;;;;;4.43;3.37;;;5.60;99.90;;;;;;4992402;28;20750;-72
2022/09/30 04:20:12;;;;;;;10.03;5.30;;;5.60;99.90;;;;;;4992833;28;20179;-74
2022/09/30 04:22:37;;;;;;;11.93;3.23;;;5.60;99.90;;;;;;4994115;28;20631;-72
2022/09/30 04:25:03;;;;;;;4.77;3.30;;;5.60;99.90;;;;;;4992469;28;20199;-72
2022/09/30 04:27:29;;;;;;;4.43;3.60;;;5.60;99.90;;;;;;4992281;28;20224;-71
2022/09/30 04:29:54;;;;;;;4.70;3.70;;;5.60;99.90;;;;;;4992234;28;20415;-73
2022/09/30 04:32:24;;;;;;;4.90;3.13;;;5.60;99.90;;;;;;4992508;28;20169;-72
2022/09/30 04:34:50;;;;;;;9.20;4.07;;;5.50;99.90;;;;;;4991974;28;20169;-71
2022/09/30 04:37:16;;;;;;;6.77;3.73;;;5.50;99.90;;;;;;4992082;28;20446;-71
2022/09/30 04:39:41;;;;;;;5.40;4.00;;;5.50;99.90;;;;;;4992240;28;20423;-72
2022/09/30 04:42:07;;;;;;;5.03;3.67;;;5.50;99.90;;;;;;4992243;28;20184;-74
2022/09/30 04:44:34;;;;;;;5.17;3.50;;;5.50;99.90;;;;;;4990647;28;20488;-71
2022/09/30 04:46:59;;;;;;;4.63;3.40;;;5.50;99.90;;;;;;4992053;28;20197;-73
2022/09/30 04:49:26;;;;;;;5.20;3.50;;;5.50;99.90;;;;;;4991165;28;20440;-71
2022/09/30 04:51:51;;;;;;;8.57;4.00;;;5.60;99.90;;;;;;4992178;28;20256;-73
2022/09/30 04:54:18;;;;;;;6.00;4.77;;;5.60;99.90;;;;;;4990618;28;20444;-72
2022/09/30 04:56:43;;;;;;;4.57;3.93;;;5.60;99.90;;;;;;4992102;28;20224;-72
2022/09/30 04:59:09;;;;;;;7.07;4.10;;;5.60;99.90;;;;;;4991090;28;20434;-72
2022/09/30 05:01:35;;;;;;;4.27;3.83;;;5.60;99.90;;;;;;4992211;28;20228;-72
2022/09/30 05:04:01;;;;;;;7.47;4.10;;;5.60;99.90;;;;;;4992129;28;20412;-72
2022/09/30 05:06:27;;;;;;;6.80;4.40;;;5.60;99.90;;;;;;4994145;28;20240;-72
2022/09/30 05:08:52;;;;;;;3.70;3.10;;;5.50;99.90;;;;;;4995626;28;20424;-72
2022/09/30 05:11:20;;;;;;;6.90;4.33;;;5.50;99.90;;;;;;4995671;28;20677;-72
2022/09/30 05:13:46;;;;;;;8.03;4.63;;;5.50;99.90;;;;;;4995460;28;20184;-71
2022/09/30 05:16:13;;;;;;;4.73;4.10;;;5.40;99.90;;;;;;4994926;28;20427;-72
2022/09/30 05:18:41;;;;;;;7.90;3.70;;;5.50;99.90;;;;;;4995374;28;20551;-73
2022/09/30 05:21:07;;;;;;;5.00;3.93;;;5.40;99.90;;;;;;4995240;28;20474;-73
2022/09/30 05:23:33;;;;;;;5.47;4.60;;;5.50;99.90;;;;;;4995168;28;20413;-73
2022/09/30 05:26:00;;;;;;;8.80;4.30;;;5.50;99.90;;;;;;4993571;28;20475;-72
2022/09/30 05:28:25;;;;;;;5.60;3.20;;;5.50;99.90;;;;;;4995170;28;20165;-72
2022/09/30 05:30:58;;;;;;;8.80;3.90;;;5.50;99.90;;;;;;4995123;28;20408;-72
2022/09/30 05:33:24;;;;;;;6.23;4.10;;;5.50;99.90;;;;;;4995243;28;20165;-72
2022/09/30 05:35:51;;;;;;;4.30;3.63;;;5.50;99.90;;;;;;4994660;28;20774;-71
2022/09/30 05:38:16;;;;;;;5.40;3.57;;;5.50;99.90;;;;;;4993780;28;20455;-72
2022/09/30 05:40:42;;;;;;;10.20;3.30;;;5.50;99.90;;;;;;4994967;28;20416;-72
2022/09/30 05:43:08;;;;;;;5.43;3.50;;;5.50;99.90;;;;;;4995014;28;20184;-72
2022/09/30 05:45:34;;;;;;;9.13;4.40;;;5.40;99.90;;;;;;4993301;28;20550;-72
2022/09/30 05:48:00;;;;;;;13.67;7.43;;;5.40;99.90;;;;;;4994441;28;20486;-72
2022/09/30 05:50:26;;;;;;;12.50;6.63;;;5.40;99.90;;;;;;4994704;28;20176;-71
2022/09/30 05:52:51;;;;;;;6.70;3.40;;;5.50;99.90;;;;;;4994883;28;20414;-72
2022/09/30 05:55:18;;;;;;;3.97;3.60;;;5.40;99.90;;;;;;4994623;28;20184;-72
2022/09/30 05:57:47;;;;;;;5.40;4.30;;;5.50;99.90;;;;;;4994532;28;20674;-72
2022/09/30 06:00:13;;;;;;;8.03;4.73;;;5.50;99.90;;;;;;4995103;28;20408;-71
2022/09/30 06:02:40;;;;;;;5.23;3.57;;;5.50;99.90;;;;;;4995056;28;20412;-72
2022/09/30 06:05:07;;;;;;;5.23;3.37;;;5.50;99.90;;;;;;4995183;28;20423;-72
2022/09/30 06:07:33;;;;;;;5.37;3.73;;;5.50;99.90;;;;;;4995426;28;20805;-72
2022/09/30 06:09:59;;;;;;;4.80;3.73;;;5.50;99.90;;;;;;4994444;28;20407;-72
2022/09/30 06:12:27;;;;;;;11.73;3.70;;;5.60;99.90;;;;;;4994401;28;20412;-72
2022/09/30 06:14:53;;;;;;;7.27;3.80;;;5.60;99.90;;;;;;4994069;28;20216;-73
2022/09/30 06:17:19;;;;;;;8.80;4.10;;;5.60;99.90;;;;;;4994062;28;20429;-73
2022/09/30 06:19:45;;;;;;;6.17;4.00;;;5.70;99.90;;;;;;4994285;28;20411;-72
2022/09/30 06:22:10;;;;;;;5.73;4.00;;;5.70;99.90;;;;;;4994055;28;20927;-72
2022/09/30 06:24:36;;;;;;;6.53;4.13;;;5.70;99.90;;;;;;4993870;28;20224;-72
2022/09/30 06:27:01;;;;;;;5.23;3.90;;;5.80;99.90;;;;;;4993941;28;20207;-72
2022/09/30 06:29:27;;;;;;;7.33;4.20;;;5.90;99.90;;;;;;4992824;28;20179;-72
2022/09/30 06:31:53;;;;;;;5.83;3.93;;;6.00;99.90;;;;;;4993986;28;20172;-72
2022/09/30 06:34:19;;;;;;;6.10;3.13;;;6.10;99.90;;;;;;4992454;28;20176;-72
2022/09/30 06:36:44;;;;;;;5.47;4.00;;;6.10;99.90;;;;;;4993865;28;20251;-72
2022/09/30 06:39:10;;;;;;;12.30;4.70;;;6.20;99.90;;;;;;4993884;28;20495;-72
2022/09/30 06:41:38;;;;;;;4.33;3.90;;;6.30;99.90;;;;;;4993761;28;20172;-73
2022/09/30 06:44:04;;;;;;;8.73;3.97;;;6.40;99.90;;;;;;4993673;28;20165;-73
2022/09/30 06:46:29;;;;;;;6.10;3.97;;;6.40;99.90;;;;;;4993324;28;21047;-72
2022/09/30 06:48:57;;;;;;;9.47;4.67;;;6.50;99.90;;;;;;4993712;28;20169;-72
2022/09/30 06:51:25;;;;;;;4.63;3.60;;;6.60;99.90;;;;;;4993632;28;20189;-72
2022/09/30 06:53:55;;;;;;;5.93;3.60;;;6.70;99.90;;;;;;4993636;28;20836;-72
2022/09/30 06:56:21;;;;;;;6.10;4.40;;;6.90;99.90;;;;;;4993249;28;20428;-71
2022/09/30 06:58:47;;;;;;;18.83;6.70;;;7.00;99.90;;;;;;4993529;28;20400;-72
2022/09/30 07:01:13;;;;;;;7.13;4.63;;;7.10;99.90;;;;;;4993459;28;20404;-71
2022/09/30 07:03:44;;;;;;;7.17;4.80;;;7.20;99.90;;;;;;4993531;28;20196;-73
2022/09/30 07:06:11;;;;;;;5.37;4.23;;;7.30;99.90;;;;;;4993006;28;20459;-72
2022/09/30 07:08:37;;;;;;;7.03;4.60;;;7.50;99.90;;;;;;4993319;28;20419;-72
2022/09/30 07:11:13;;;;;;;8.33;4.87;;;7.60;99.90;;;;;;4992078;28;20420;-71
2022/09/30 07:13:44;;;;;;;6.03;4.30;;;7.70;99.90;;;;;;4993280;28;20769;-72
2022/09/30 07:16:10;;;;;;;4.80;4.07;;;7.80;99.90;;;;;;4992887;28;20428;-71
2022/09/30 07:18:37;;;;;;;8.67;6.57;;;7.90;99.90;;;;;;4991931;28;20412;-72
2022/09/30 07:21:03;;;;;;;11.23;5.23;;;8.00;99.90;;;;;;4993120;28;20408;-72
2022/09/30 07:23:29;;;;;;;11.63;6.33;;;8.10;99.90;;;;;;4993121;28;20462;-71
2022/09/30 07:25:57;;;;;;;9.63;5.20;;;8.20;99.90;;;;;;4993052;28;20482;-72
2022/09/30 07:28:30;;;;;;;7.73;5.20;;;8.40;99.90;;;;;;4992564;28;20404;-72
2022/09/30 07:30:57;;;;;;;7.73;4.40;;;8.50;99.90;;;;;;4993330;28;20436;-73
2022/09/30 07:33:31;;;;;;;8.00;5.67;;;8.70;99.90;;;;;;4993126;28;20404;-72
2022/09/30 07:35:59;;;;;;;10.67;5.07;;;8.80;99.90;;;;;;4992921;28;20511;-73
2022/09/30 07:38:28;;;;;;;5.17;4.13;;;8.90;99.90;;;;;;4993203;28;20414;-73
2022/09/30 07:40:56;;;;;;;6.93;4.83;;;9.10;99.90;;;;;;4992980;28;20392;-72
2022/09/30 07:43:23;;;;;;;7.80;5.73;;;9.20;99.90;;;;;;4991749;28;20429;-73
2022/09/30 07:45:49;;;;;;;5.67;4.97;;;9.30;99.90;;;;;;4992498;28;20546;-72
2022/09/30 07:50:59;;;;;;;7.23;5.83;;;9.60;99.90;;;;;;4992950;28;20276;-74
2022/09/30 07:53:24;;;;;;;5.77;4.87;;;9.80;99.90;;;;;;4992671;28;20964;-72
2022/09/30 07:55:50;;;;;;;6.63;5.23;;;9.90;99.90;;;;;;4992308;28;20424;-74
2022/09/30 07:58:16;;;;;;;7.60;4.60;;;10.10;99.90;;;;;;4992633;28;20179;-73
2022/09/30 08:00:41;;;;;;;8.70;5.40;;;10.20;99.90;;;;;;4992620;28;20165;-73
2022/09/30 08:03:07;;;;;;;10.10;5.00;;;10.60;99.90;;;;;;4992579;28;20219;-72
2022/09/30 08:05:38;;;;;;;4.60;3.97;;;11.10;99.90;;;;;;4992153;28;20165;-74
2022/09/30 08:08:05;;;;;;;5.90;4.10;;;11.70;99.90;;;;;;4992574;28;20392;-74
2022/09/30 08:10:34;;;;;;;9.77;4.37;;;12.20;99.90;;;;;;4992582;28;20401;-73
2022/09/30 08:12:59;;;;;;;7.67;5.60;;;12.80;99.90;;;;;;4991200;28;21000;-73
2022/09/30 08:15:25;;;;;;;4.20;3.80;;;13.80;99.90;;;;;;4992123;28;20436;-74
2022/09/30 08:17:50;;;;;;;12.40;3.53;;;15.30;99.90;;;;;;4991262;28;20222;-74
2022/09/30 08:20:16;;;;;;;7.10;4.20;;;16.90;99.90;;;;;;4992377;28;20581;-73
2022/09/30 08:22:41;;;;;;;5.57;3.10;;;18.50;99.90;;;;;;4992472;28;20165;-72
2022/09/30 08:25:07;;;;;;;4.83;3.53;;;19.90;99.90;;;;;;4992034;28;20165;-71
2022/09/30 08:27:32;;;;;;;4.60;3.33;;;21.20;99.90;;;;;;4992154;28;20231;-72
2022/09/30 08:29:58;;;;;;;7.57;3.83;;;22.50;92.50;;;;;;4992251;28;20173;-73
2022/09/30 08:32:23;;;;;;;6.37;3.77;;;23.60;72.10;;;;;;4992763;28;20173;-72
2022/09/30 08:34:49;;;;;;;4.30;3.90;;;24.40;66.00;;;;;;4991964;28;20195;-72
2022/09/30 08:37:14;;;;;;;7.03;3.60;;;25.40;62.20;;;;;;4992150;28;20201;-72
2022/09/30 08:39:42;;;;;;;3.60;3.27;;;26.30;57.50;;;;;;4992235;28;20184;-72
2022/09/30 08:42:10;;;;;;;4.70;4.00;;;27.10;54.80;;;;;;4995820;28;20586;-72
2022/09/30 08:44:46;;;;;;;5.80;3.70;;;27.50;52.10;;;;;;4995655;28;20400;-72
2022/09/30 08:47:40;;;;;;;4.87;3.23;;;28.10;50.80;;;;;;4995916;28;20486;-72
2022/09/30 08:50:42;;;;;;;5.13;3.80;;;29.10;49.70;;;;;;4994592;28;20434;-72
2022/09/30 08:53:13;;;;;;;4.33;3.33;;;30.10;46.70;;;;;;4995847;28;20406;-72
2022/09/30 08:55:44;;;;;;;4.87;2.97;;;30.40;45.50;;;;;;4994231;28;20400;-73
2022/09/30 08:58:20;;;;;;;5.20;3.30;;;30.80;45.30;;;;;;4995774;28;20399;-72
2022/09/30 09:00:47;;;;;;;3.30;3.00;;;30.80;44.00;;;;;;4995786;28;20406;-72
2022/09/30 09:03:13;;;;;;;4.00;3.20;;;31.50;43.30;;;;;;4995663;28;20479;-72
2022/09/30 09:06:15;;;;;;;3.93;3.53;;;31.90;42.60;;;;;;4995274;28;20739;-74
2022/09/30 09:09:13;;;;;;;4.40;3.97;;;32.00;41.80;;;;;;4990831;28;20424;-74
2022/09/30 09:12:13;;;;;;;6.47;3.90;;;32.70;41.40;;;;;;4986484;28;20420;-74
2022/09/30 09:14:55;;;;;;;3.70;3.37;;;33.10;40.30;;;;;;4993681;28;20408;-74
2022/09/30 09:17:43;;;;;;;4.13;3.23;;;34.10;39.70;;;;;;4995376;28;20432;-74
2022/09/30 09:20:14;;;;;;;5.60;5.10;;;33.90;38.70;;;;;;4995347;28;20420;-75
2022/09/30 09:22:43;;;;;;;6.40;4.93;;;34.40;38.30;;;;;;4995275;28;20827;-74
2022/09/30 09:25:14;;;;;;;6.70;4.63;;;34.40;38.00;;;;;;4994906;28;20818;-75
2022/09/30 09:27:53;;;;;;;5.10;4.60;;;35.10;37.90;;;;;;4995036;28;20438;-74
2022/09/30 09:30:43;;;;;;;5.70;4.07;;;35.50;37.00;;;;;;4995087;28;20405;-74
2022/09/30 09:33:26;;;;;;;6.77;4.97;;;35.40;37.00;;;;;;4993918;28;20394;-74
2022/09/30 09:36:07;;;;;;;5.63;4.10;;;35.60;36.70;;;;;;4994865;28;20443;-73
2022/09/30 09:38:51;;;;;;;4.77;4.27;;;36.30;35.90;;;;;;4994739;28;20964;-75
2022/09/30 09:41:19;;;;;;;6.00;4.20;;;36.50;35.00;;;;;;4995013;28;20374;-74
2022/09/30 09:43:47;;;;;;;8.63;4.47;;;36.00;34.90;;;;;;4993692;28;20404;-75
2022/09/30 09:46:31;;;;;;;5.07;4.30;;;36.20;34.80;;;;;;4994644;28;20420;-73
2022/09/30 09:49:12;;;;;;;4.27;3.73;;;35.70;34.70;;;;;;4995003;28;20371;-75
2022/09/30 09:51:50;;;;;;;4.67;4.27;;;35.60;34.20;;;;;;4994361;28;20413;-74
2022/09/30 09:54:19;;;;;;;4.67;4.27;;;35.80;34.90;;;;;;4994511;28;20421;-73
2022/09/30 09:56:45;;;;;;;5.13;4.17;;;36.30;35.30;;;;;;4994629;28;20472;-73
2022/09/30 09:59:18;;;;;;;6.57;4.00;;;36.70;34.90;;;;;;4994597;28;20478;-73
2022/09/30 10:01:43;;;;;;;5.67;4.80;;;37.20;34.60;;;;;;4994675;28;20172;-73
2022/09/30 10:04:16;;;;;;;5.07;4.60;;;37.30;34.00;;;;;;4994502;28;20462;-73
2022/09/30 10:06:55;;;;;;;6.97;3.90;;;38.00;34.00;;;;;;4994469;28;20250;-73
2022/09/30 10:09:32;;;;;;;6.73;4.90;;;38.40;33.30;;;;;;4994521;28;20859;-72
2022/09/30 10:12:04;;;;;;;5.43;4.37;;;38.20;32.70;;;;;;4994528;28;20414;-74
2022/09/30 10:14:30;;;;;;;4.67;4.27;;;38.20;32.90;;;;;;4994364;28;20443;-72
2022/09/30 10:17:01;;;;;;;4.63;4.10;;;38.10;32.80;;;;;;4994225;28;20981;-72
2022/09/30 10:19:29;;;;;;;4.80;4.23;;;37.60;32.20;;;;;;4994168;28;20415;-70
2022/09/30 10:22:06;;;;;;;5.43;3.80;;;37.40;32.50;;;;;;4992974;28;20395;-70
2022/09/30 10:24:32;;;;;;;5.13;4.63;;;37.40;32.60;;;;;;4993924;28;20767;-70
2022/09/30 10:26:57;;;;;;;3.63;3.30;;;37.60;32.50;;;;;;4994100;28;20454;-70
2022/09/30 10:29:34;;;;;;;5.50;4.40;;;38.10;31.70;;;;;;4994053;28;20173;-70
2022/09/30 10:32:03;;;;;;;6.93;4.03;;;38.10;31.30;;;;;;4994385;28;20507;-71
2022/09/30 10:34:32;;;;;;;4.13;3.30;;;37.50;31.60;;;;;;4993926;28;20897;-71
2022/09/30 10:37:01;;;;;;;3.97;3.67;;;38.20;32.20;;;;;;4992496;28;20526;-73
2022/09/30 10:39:34;;;;;;;3.60;3.30;;;38.10;30.90;;;;;;4993923;28;20378;-73
2022/09/30 10:42:09;;;;;;;3.10;2.80;;;38.20;29.20;;;;;;4992538;28;20499;-72
2022/09/30 10:44:44;;;;;;;2.70;2.50;;;38.00;28.70;;;;;;4993509;28;20383;-71
2022/09/30 10:47:15;;;;;;;4.00;3.03;;;37.90;29.30;;;;;;4993756;28;20749;-72
2022/09/30 10:49:56;;;;;;;3.20;2.57;;;38.30;29.60;;;;;;4993562;28;20424;-71
2022/09/30 10:52:27;;;;;;;5.47;3.10;;;38.70;29.60;;;;;;4993792;28;20815;-72
2022/09/30 10:55:06;;;;;;;2.70;2.50;;;39.20;28.50;;;;;;4993484;28;20763;-73
2022/09/30 10:57:34;;;;;;;2.43;2.23;;;39.10;28.20;;;;;;4992227;28;20522;-73
2022/09/30 11:00:13;;;;;;;3.00;2.50;;;38.60;28.20;;;;;;4993734;28;20475;-71
2022/09/30 11:02:57;;;;;;;3.27;2.50;;;38.30;28.30;;;;;;4993056;28;20440;-72
2022/09/30 11:05:30;;;;;;;2.73;2.53;;;37.80;28.30;;;;;;4993080;28;20419;-71
2022/09/30 11:07:58;;;;;;;2.47;2.27;;;37.80;28.90;;;;;;4993367;28;20502;-71
2022/09/30 11:10:52;;;;;;;2.40;2.23;;;37.70;29.10;;;;;;4993342;28;20383;-71
2022/09/30 11:13:47;;;;;;;2.60;2.40;;;37.90;29.10;;;;;;4991924;28;20395;-71
2022/09/30 11:16:44;;;;;;;4.53;2.13;;;38.20;28.90;;;;;;4992818;28;20463;-74
2022/09/30 11:19:19;;;;;;;2.17;1.73;;;38.30;28.90;;;;;;4993232;28;20485;-74
2022/09/30 11:21:47;;;;;;;2.70;2.50;;;38.40;29.10;;;;;;4993113;28;20379;-73
2022/09/30 11:24:12;;;;;;;2.47;2.27;;;38.60;28.60;;;;;;4993478;28;20959;-73
2022/09/30 11:26:51;;;;;;;2.40;2.13;;;38.70;29.00;;;;;;4993401;28;20490;-71
2022/09/30 11:29:17;;;;;;;2.77;2.40;;;39.10;28.20;;;;;;4993101;28;20161;-72
2022/09/30 11:32:06;;;;;;;2.67;2.40;;;38.50;28.50;;;;;;4992940;28;20415;-72
2022/09/30 11:34:57;;;;;;;3.20;2.70;;;39.30;29.10;;;;;;4992864;28;20201;-71
2022/09/30 11:37:57;;;;;;;2.53;2.33;;;38.70;27.90;;;;;;4992767;28;20462;-73
2022/09/30 11:40:41;;;;;;;2.77;2.57;;;37.00;28.30;;;;;;4989629;28;20438;-73
2022/09/30 11:43:29;;;;;;;2.23;1.90;;;35.00;29.30;;;;;;4993125;28;20743;-74
2022/09/30 11:46:09;;;;;;;2.27;2.07;;;33.60;30.60;;;;;;4992582;28;20428;-72
2022/09/30 11:48:59;;;;;;;2.27;2.07;;;32.80;32.20;;;;;;4991492;28;20415;-72
2022/09/30 11:51:59;;;;;;;5.30;2.50;;;33.90;33.50;;;;;;4991463;28;20535;-72
2022/09/30 11:54:43;;;;;;;3.37;2.70;;;35.10;33.30;;;;;;4992641;28;20770;-73
2022/09/30 11:57:18;;;;;;;2.30;2.10;;;35.70;32.80;;;;;;4992491;28;20451;-73
2022/09/30 12:00:04;;;;;;;3.23;2.73;;;36.30;32.40;;;;;;4992658;28;20399;-72
2022/09/30 12:02:36;;;;;;;2.63;2.23;;;37.30;32.20;;;;;;4992539;28;20483;-74
2022/09/30 12:05:09;;;;;;;3.30;2.33;;;37.90;31.20;;;;;;4992357;28;20393;-73
2022/09/30 12:07:39;;;;;;;3.10;2.63;;;37.30;30.50;;;;;;4992389;28;20466;-72
2022/09/30 12:10:17;;;;;;;2.53;1.90;;;35.80;30.30;;;;;;4992519;28;20898;-71
2022/09/30 12:12:45;;;;;;;3.70;3.20;;;34.30;30.70;;;;;;4992413;28;20416;-72
2022/09/30 12:15:16;;;;;;;1.80;1.70;;;33.20;32.50;;;;;;4994323;28;20475;-72
2022/09/30 12:17:53;;;;;;;3.60;2.00;;;33.30;34.00;;;;;;4996310;28;20944;-73
2022/09/30 12:20:30;;;;;;;2.00;1.70;;;33.80;33.90;;;;;;4996519;28;20408;-72
2022/09/30 12:23:23;;;;;;;2.27;2.07;;;34.10;34.00;;;;;;4996508;28;20400;-72
2022/09/30 12:25:55;;;;;;;4.13;1.80;;;35.20;34.00;;;;;;4996366;28;20482;-72
2022/09/30 12:31:44;;;;;;;5.33;2.17;;;36.80;31.70;;;;;;4996379;28;20507;-71
2022/09/30 12:34:36;;;;;;;2.23;1.80;;;36.90;30.00;;;;;;4987682;28;20414;-73
2022/09/30 12:37:14;;;;;;;2.30;2.03;;;37.00;30.80;;;;;;4996099;28;20460;-72
2022/09/30 12:40:10;;;;;;;5.03;1.90;;;37.40;30.60;;;;;;4995149;28;20948;-72
2022/09/30 12:42:57;;;;;;;3.60;2.33;;;38.30;29.90;;;;;;4996150;28;20884;-73
2022/09/30 12:45:34;;;;;;;3.57;2.20;;;39.10;29.30;;;;;;4995777;28;20943;-74
2022/09/30 12:48:06;;;;;;;1.70;1.50;;;40.00;29.30;;;;;;4995991;28;20408;-73
2022/09/30 12:50:40;;;;;;;3.57;1.80;;;40.40;28.60;;;;;;4995835;28;20426;-72
2022/09/30 12:53:21;;;;;;;2.50;1.83;;;40.60;28.40;;;;;;4995953;28;20785;-71
2022/09/30 12:55:47;;;;;;;3.07;2.07;;;40.70;27.80;;;;;;4995884;28;20391;-72
2022/09/30 12:58:19;;;;;;;5.13;2.07;;;40.00;27.00;;;;;;4995831;28;20462;-73
2022/09/30 13:01:04;;;;;;;1.90;1.77;;;39.20;27.50;;;;;;4995846;28;20803;-73
2022/09/30 13:03:43;;;;;;;2.43;1.60;;;37.70;28.40;;;;;;4995398;28;20498;-71
2022/09/30 13:06:09;;;;;;;2.00;1.57;;;36.40;29.10;;;;;;4995332;28;20432;-72
2022/09/30 13:08:57;;;;;;;5.00;2.27;;;37.10;29.70;;;;;;4995639;28;20415;-71
2022/09/30 13:11:39;;;;;;;2.10;1.50;;;37.30;29.10;;;;;;4995609;28;20175;-72
2022/09/30 13:14:25;;;;;;;2.20;1.70;;;36.90;29.30;;;;;;4995452;28;20499;-72
2022/09/30 13:17:24;;;;;;;2.50;1.70;;;35.10;29.00;;;;;;4995394;28;20452;-71
2022/09/30 13:19:52;;;;;;;2.80;1.50;;;33.10;30.00;;;;;;4995624;28;20947;-72
2022/09/30 13:22:18;;;;;;;2.00;1.23;;;33.20;31.00;;;;;;4995489;28;20566;-73
2022/09/30 13:24:59;;;;;;;3.90;1.17;;;32.90;31.60;;;;;;4995180;28;20436;-72
2022/09/30 13:27:50;;;;;;;1.40;1.13;;;32.00;32.30;;;;;;4994350;28;20185;-74